sensor_id;sensor_type;location;lat;lon;timestamp;P1;durP1;ratioP1;P2;durP2;ratioP2
16270;SDS011;8243;49.048;8.396;2023-06-01T00:02:00;5.53;;;2.57;;
16270;SDS011;8243;49.048;8.396;2023-06-01T00:04:26;5.40;;;2.50;;
16270;SDS011;8243;49.048;8.396;2023-06-01T00:06:52;4.33;;;2.67;;
16270;SDS011;8243;49.048;8.396;2023-06-01T00:09:19;7.63;;;2.83;;
16270;SDS011;8243;49.048;8.396;2023-06-01T00:11:45;3.20;;;2.80;;
16270;SDS011;8243;49.048;8.396;2023-06-01T00:14:11;5.40;;;2.73;;
16270;SDS011;8243;49.048;8.396;2023-06-01T00:16:37;4.40;;;2.70;;
16270;SDS011;8243;49.048;8.396;2023-06-01T00:19:03;2.97;;;2.57;;
16270;SDS011;8243;49.048;8.396;2023-06-01T00:21:29;4.70;;;2.60;;
16270;SDS011;8243;49.048;8.396;2023-06-01T00:24:00;4.40;;;2.70;;
16270;SDS011;8243;49.048;8.396;2023-06-01T00:26:26;5.10;;;2.53;;
16270;SDS011;8243;49.048;8.396;2023-06-01T00:28:52;4.97;;;2.67;;
16270;SDS011;8243;49.048;8.396;2023-06-01T00:31:20;3.80;;;3.03;;
16270;SDS011;8243;49.048;8.396;2023-06-01T00:33:45;6.57;;;3.10;;
16270;SDS011;8243;49.048;8.396;2023-06-01T00:36:11;4.50;;;3.00;;
16270;SDS011;8243;49.048;8.396;2023-06-01T00:38:39;4.70;;;2.80;;
16270;SDS011;8243;49.048;8.396;2023-06-01T00:41:07;3.23;;;2.80;;
16270;SDS011;8243;49.048;8.396;2023-06-01T00:43:33;3.57;;;2.77;;
16270;SDS011;8243;49.048;8.396;2023-06-01T00:45:59;6.03;;;2.63;;
16270;SDS011;8243;49.048;8.396;2023-06-01T00:48:25;4.43;;;2.90;;
16270;SDS011;8243;49.048;8.396;2023-06-01T00:50:51;4.87;;;2.67;;
16270;SDS011;8243;49.048;8.396;2023-06-01T00:53:18;4.07;;;3.20;;
16270;SDS011;8243;49.048;8.396;2023-06-01T00:55:44;5.80;;;2.83;;
16270;SDS011;8243;49.048;8.396;2023-06-01T00:58:11;4.57;;;2.83;;
16270;SDS011;8243;49.048;8.396;2023-06-01T01:00:38;4.87;;;2.90;;
16270;SDS011;8243;49.048;8.396;2023-06-01T01:10:32;3.67;;;2.70;;
16270;SDS011;8243;49.048;8.396;2023-06-01T01:15:38;3.80;;;2.83;;
16270;SDS011;8243;49.048;8.396;2023-06-01T01:18:07;4.70;;;2.73;;
16270;SDS011;8243;49.048;8.396;2023-06-01T01:20:48;3.77;;;2.80;;
16270;SDS011;8243;49.048;8.396;2023-06-01T01:29:00;4.10;;;2.70;;
16270;SDS011;8243;49.048;8.396;2023-06-01T01:31:30;5.17;;;2.67;;
16270;SDS011;8243;49.048;8.396;2023-06-01T01:33:59;4.97;;;3.03;;
16270;SDS011;8243;49.048;8.396;2023-06-01T01:36:26;4.63;;;3.00;;
16270;SDS011;8243;49.048;8.396;2023-06-01T01:38:55;3.37;;;3.00;;
16270;SDS011;8243;49.048;8.396;2023-06-01T01:41:24;4.80;;;3.27;;
16270;SDS011;8243;49.048;8.396;2023-06-01T01:43:51;3.53;;;2.53;;
16270;SDS011;8243;49.048;8.396;2023-06-01T01:46:26;3.67;;;3.07;;
16270;SDS011;8243;49.048;8.396;2023-06-01T01:52:21;3.87;;;3.13;;
16270;SDS011;8243;49.048;8.396;2023-06-01T01:54:56;3.90;;;2.53;;
16270;SDS011;8243;49.048;8.396;2023-06-01T01:57:23;4.07;;;2.70;;
16270;SDS011;8243;49.048;8.396;2023-06-01T01:59:50;6.40;;;3.03;;
16270;SDS011;8243;49.048;8.396;2023-06-01T02:02:18;7.10;;;3.20;;
16270;SDS011;8243;49.048;8.396;2023-06-01T02:04:44;5.17;;;2.73;;
16270;SDS011;8243;49.048;8.396;2023-06-01T02:07:13;3.87;;;2.90;;
16270;SDS011;8243;49.048;8.396;2023-06-01T02:09:39;4.50;;;2.90;;
16270;SDS011;8243;49.048;8.396;2023-06-01T02:12:06;3.87;;;2.93;;
16270;SDS011;8243;49.048;8.396;2023-06-01T02:14:32;4.43;;;2.90;;
16270;SDS011;8243;49.048;8.396;2023-06-01T02:16:58;3.53;;;2.93;;
16270;SDS011;8243;49.048;8.396;2023-06-01T02:19:25;3.77;;;2.67;;
16270;SDS011;8243;49.048;8.396;2023-06-01T02:21:55;4.80;;;2.80;;
16270;SDS011;8243;49.048;8.396;2023-06-01T02:24:20;4.37;;;3.07;;
16270;SDS011;8243;49.048;8.396;2023-06-01T02:26:46;6.53;;;3.07;;
16270;SDS011;8243;49.048;8.396;2023-06-01T02:29:18;4.53;;;3.20;;
16270;SDS011;8243;49.048;8.396;2023-06-01T02:31:47;5.43;;;3.23;;
16270;SDS011;8243;49.048;8.396;2023-06-01T02:34:16;7.30;;;3.17;;
16270;SDS011;8243;49.048;8.396;2023-06-01T02:36:42;6.10;;;3.20;;
16270;SDS011;8243;49.048;8.396;2023-06-01T02:39:08;5.33;;;3.20;;
16270;SDS011;8243;49.048;8.396;2023-06-01T02:41:34;5.97;;;3.40;;
16270;SDS011;8243;49.048;8.396;2023-06-01T02:44:03;5.37;;;3.03;;
16270;SDS011;8243;49.048;8.396;2023-06-01T02:46:50;4.13;;;3.30;;
16270;SDS011;8243;49.048;8.396;2023-06-01T02:49:16;4.57;;;2.90;;
16270;SDS011;8243;49.048;8.396;2023-06-01T02:51:41;4.53;;;3.33;;
16270;SDS011;8243;49.048;8.396;2023-06-01T02:54:07;5.43;;;3.17;;
16270;SDS011;8243;49.048;8.396;2023-06-01T02:56:33;3.77;;;2.87;;
16270;SDS011;8243;49.048;8.396;2023-06-01T02:58:58;5.53;;;3.33;;
16270;SDS011;8243;49.048;8.396;2023-06-01T03:01:35;4.43;;;3.10;;
16270;SDS011;8243;49.048;8.396;2023-06-01T03:04:15;4.73;;;3.10;;
16270;SDS011;8243;49.048;8.396;2023-06-01T03:06:51;4.27;;;2.83;;
16270;SDS011;8243;49.048;8.396;2023-06-01T03:09:22;3.97;;;3.00;;
16270;SDS011;8243;49.048;8.396;2023-06-01T03:11:54;4.57;;;3.20;;
16270;SDS011;8243;49.048;8.396;2023-06-01T03:14:28;5.57;;;3.33;;
16270;SDS011;8243;49.048;8.396;2023-06-01T03:17:02;6.70;;;3.60;;
16270;SDS011;8243;49.048;8.396;2023-06-01T03:19:29;4.60;;;3.50;;
16270;SDS011;8243;49.048;8.396;2023-06-01T03:21:55;4.40;;;3.60;;
16270;SDS011;8243;49.048;8.396;2023-06-01T03:24:21;4.20;;;2.90;;
16270;SDS011;8243;49.048;8.396;2023-06-01T03:26:52;4.47;;;3.10;;
16270;SDS011;8243;49.048;8.396;2023-06-01T03:29:18;3.90;;;3.33;;
16270;SDS011;8243;49.048;8.396;2023-06-01T03:31:43;4.97;;;3.23;;
16270;SDS011;8243;49.048;8.396;2023-06-01T03:34:09;6.60;;;3.10;;
16270;SDS011;8243;49.048;8.396;2023-06-01T03:36:35;4.00;;;2.80;;
16270;SDS011;8243;49.048;8.396;2023-06-01T03:39:02;5.07;;;3.07;;
16270;SDS011;8243;49.048;8.396;2023-06-01T03:41:33;5.10;;;3.47;;
16270;SDS011;8243;49.048;8.396;2023-06-01T03:44:02;2.77;;;2.57;;
16270;SDS011;8243;49.048;8.396;2023-06-01T03:46:29;4.97;;;3.30;;
16270;SDS011;8243;49.048;8.396;2023-06-01T03:48:55;6.30;;;3.50;;
16270;SDS011;8243;49.048;8.396;2023-06-01T03:51:21;4.37;;;3.33;;
16270;SDS011;8243;49.048;8.396;2023-06-01T03:53:54;4.67;;;3.30;;
16270;SDS011;8243;49.048;8.396;2023-06-01T03:56:20;4.73;;;3.17;;
16270;SDS011;8243;49.048;8.396;2023-06-01T03:58:47;5.37;;;3.27;;
16270;SDS011;8243;49.048;8.396;2023-06-01T04:01:13;4.23;;;3.53;;
16270;SDS011;8243;49.048;8.396;2023-06-01T04:03:44;3.37;;;3.03;;
16270;SDS011;8243;49.048;8.396;2023-06-01T04:06:10;7.73;;;3.53;;
16270;SDS011;8243;49.048;8.396;2023-06-01T04:08:43;3.73;;;3.03;;
16270;SDS011;8243;49.048;8.396;2023-06-01T04:11:14;5.97;;;2.77;;
16270;SDS011;8243;49.048;8.396;2023-06-01T04:13:40;4.17;;;3.10;;
16270;SDS011;8243;49.048;8.396;2023-06-01T04:16:08;5.83;;;3.20;;
16270;SDS011;8243;49.048;8.396;2023-06-01T04:18:34;4.93;;;3.03;;
16270;SDS011;8243;49.048;8.396;2023-06-01T04:21:03;3.10;;;2.80;;
16270;SDS011;8243;49.048;8.396;2023-06-01T04:23:29;3.20;;;2.80;;
16270;SDS011;8243;49.048;8.396;2023-06-01T04:25:55;3.83;;;2.93;;
16270;SDS011;8243;49.048;8.396;2023-06-01T04:28:24;2.90;;;2.60;;
16270;SDS011;8243;49.048;8.396;2023-06-01T04:30:56;3.57;;;2.90;;
16270;SDS011;8243;49.048;8.396;2023-06-01T04:33:23;3.27;;;2.83;;
16270;SDS011;8243;49.048;8.396;2023-06-01T04:35:53;4.63;;;3.10;;
16270;SDS011;8243;49.048;8.396;2023-06-01T04:38:29;6.63;;;3.20;;
16270;SDS011;8243;49.048;8.396;2023-06-01T04:41:02;4.60;;;3.13;;
16270;SDS011;8243;49.048;8.396;2023-06-01T04:50:18;5.20;;;3.10;;
16270;SDS011;8243;49.048;8.396;2023-06-01T04:59:40;4.43;;;2.83;;
16270;SDS011;8243;49.048;8.396;2023-06-01T05:02:31;3.70;;;2.93;;
16270;SDS011;8243;49.048;8.396;2023-06-01T05:05:02;8.10;;;3.00;;
16270;SDS011;8243;49.048;8.396;2023-06-01T05:07:30;6.00;;;2.90;;
16270;SDS011;8243;49.048;8.396;2023-06-01T05:09:59;6.37;;;2.80;;
16270;SDS011;8243;49.048;8.396;2023-06-01T05:12:29;4.03;;;3.07;;
16270;SDS011;8243;49.048;8.396;2023-06-01T05:14:58;3.30;;;3.00;;
16270;SDS011;8243;49.048;8.396;2023-06-01T05:17:24;3.77;;;2.77;;
16270;SDS011;8243;49.048;8.396;2023-06-01T05:19:50;3.53;;;2.77;;
16270;SDS011;8243;49.048;8.396;2023-06-01T05:22:16;6.07;;;3.00;;
16270;SDS011;8243;49.048;8.396;2023-06-01T05:24:42;5.90;;;2.50;;
16270;SDS011;8243;49.048;8.396;2023-06-01T05:27:08;4.37;;;2.87;;
16270;SDS011;8243;49.048;8.396;2023-06-01T05:29:34;8.10;;;3.43;;
16270;SDS011;8243;49.048;8.396;2023-06-01T05:32:00;5.10;;;3.13;;
16270;SDS011;8243;49.048;8.396;2023-06-01T05:34:25;5.10;;;2.70;;
16270;SDS011;8243;49.048;8.396;2023-06-01T05:37:07;4.47;;;3.10;;
16270;SDS011;8243;49.048;8.396;2023-06-01T05:39:33;4.13;;;2.70;;
16270;SDS011;8243;49.048;8.396;2023-06-01T05:42:01;5.33;;;3.00;;
16270;SDS011;8243;49.048;8.396;2023-06-01T05:44:26;4.73;;;3.47;;
16270;SDS011;8243;49.048;8.396;2023-06-01T05:46:58;5.30;;;3.17;;
16270;SDS011;8243;49.048;8.396;2023-06-01T05:49:24;3.80;;;2.90;;
16270;SDS011;8243;49.048;8.396;2023-06-01T05:51:49;4.83;;;2.80;;
16270;SDS011;8243;49.048;8.396;2023-06-01T05:54:15;5.93;;;2.90;;
16270;SDS011;8243;49.048;8.396;2023-06-01T05:56:41;4.93;;;3.20;;
16270;SDS011;8243;49.048;8.396;2023-06-01T05:59:07;5.90;;;2.80;;
16270;SDS011;8243;49.048;8.396;2023-06-01T06:01:34;5.57;;;3.20;;
16270;SDS011;8243;49.048;8.396;2023-06-01T06:04:01;3.90;;;2.87;;
16270;SDS011;8243;49.048;8.396;2023-06-01T06:06:26;5.57;;;2.80;;
16270;SDS011;8243;49.048;8.396;2023-06-01T06:08:53;4.60;;;3.03;;
16270;SDS011;8243;49.048;8.396;2023-06-01T06:11:18;5.10;;;2.97;;
16270;SDS011;8243;49.048;8.396;2023-06-01T06:13:47;5.67;;;2.97;;
16270;SDS011;8243;49.048;8.396;2023-06-01T06:16:15;5.27;;;2.97;;
16270;SDS011;8243;49.048;8.396;2023-06-01T06:18:41;4.27;;;3.00;;
16270;SDS011;8243;49.048;8.396;2023-06-01T06:21:07;4.43;;;2.90;;
16270;SDS011;8243;49.048;8.396;2023-06-01T06:23:33;3.00;;;2.40;;
16270;SDS011;8243;49.048;8.396;2023-06-01T06:25:59;5.70;;;3.03;;
16270;SDS011;8243;49.048;8.396;2023-06-01T06:28:34;3.23;;;2.40;;
16270;SDS011;8243;49.048;8.396;2023-06-01T06:31:01;6.87;;;2.77;;
16270;SDS011;8243;49.048;8.396;2023-06-01T06:33:27;7.83;;;2.60;;
16270;SDS011;8243;49.048;8.396;2023-06-01T06:35:53;5.10;;;2.73;;
16270;SDS011;8243;49.048;8.396;2023-06-01T06:38:19;3.87;;;2.60;;
16270;SDS011;8243;49.048;8.396;2023-06-01T06:40:46;4.83;;;2.77;;
16270;SDS011;8243;49.048;8.396;2023-06-01T06:43:13;3.37;;;2.53;;
16270;SDS011;8243;49.048;8.396;2023-06-01T06:45:41;6.70;;;2.70;;
16270;SDS011;8243;49.048;8.396;2023-06-01T06:48:13;5.90;;;2.47;;
16270;SDS011;8243;49.048;8.396;2023-06-01T06:50:42;5.40;;;2.80;;
16270;SDS011;8243;49.048;8.396;2023-06-01T06:53:15;3.07;;;2.20;;
16270;SDS011;8243;49.048;8.396;2023-06-01T06:55:46;2.93;;;2.43;;
16270;SDS011;8243;49.048;8.396;2023-06-01T06:58:12;4.77;;;2.43;;
16270;SDS011;8243;49.048;8.396;2023-06-01T07:00:39;4.23;;;2.30;;
16270;SDS011;8243;49.048;8.396;2023-06-01T07:03:06;4.87;;;2.50;;
16270;SDS011;8243;49.048;8.396;2023-06-01T07:05:32;4.73;;;2.53;;
16270;SDS011;8243;49.048;8.396;2023-06-01T07:07:58;4.60;;;2.40;;
16270;SDS011;8243;49.048;8.396;2023-06-01T07:10:24;8.77;;;2.97;;
16270;SDS011;8243;49.048;8.396;2023-06-01T07:12:51;6.57;;;2.40;;
16270;SDS011;8243;49.048;8.396;2023-06-01T07:15:17;2.90;;;2.57;;
16270;SDS011;8243;49.048;8.396;2023-06-01T07:18:00;2.20;;;2.00;;
16270;SDS011;8243;49.048;8.396;2023-06-01T07:20:25;3.40;;;2.43;;
16270;SDS011;8243;49.048;8.396;2023-06-01T07:22:51;2.80;;;2.50;;
16270;SDS011;8243;49.048;8.396;2023-06-01T07:25:21;4.67;;;2.70;;
16270;SDS011;8243;49.048;8.396;2023-06-01T07:27:48;4.57;;;2.57;;
16270;SDS011;8243;49.048;8.396;2023-06-01T07:30:22;3.43;;;2.30;;
16270;SDS011;8243;49.048;8.396;2023-06-01T07:32:49;4.97;;;2.67;;
16270;SDS011;8243;49.048;8.396;2023-06-01T07:35:15;4.57;;;2.30;;
16270;SDS011;8243;49.048;8.396;2023-06-01T07:37:41;2.83;;;2.53;;
16270;SDS011;8243;49.048;8.396;2023-06-01T07:40:07;6.23;;;2.43;;
16270;SDS011;8243;49.048;8.396;2023-06-01T07:42:33;4.27;;;2.50;;
16270;SDS011;8243;49.048;8.396;2023-06-01T07:45:00;4.87;;;2.60;;
16270;SDS011;8243;49.048;8.396;2023-06-01T07:47:27;4.00;;;2.40;;
16270;SDS011;8243;49.048;8.396;2023-06-01T07:49:53;5.67;;;2.30;;
16270;SDS011;8243;49.048;8.396;2023-06-01T07:52:20;3.87;;;2.30;;
16270;SDS011;8243;49.048;8.396;2023-06-01T07:54:49;5.13;;;2.40;;
16270;SDS011;8243;49.048;8.396;2023-06-01T07:57:17;5.30;;;2.40;;
16270;SDS011;8243;49.048;8.396;2023-06-01T07:59:42;2.60;;;2.40;;
16270;SDS011;8243;49.048;8.396;2023-06-01T08:02:09;3.30;;;2.40;;
16270;SDS011;8243;49.048;8.396;2023-06-01T08:04:36;2.70;;;2.47;;
16270;SDS011;8243;49.048;8.396;2023-06-01T08:07:03;4.70;;;2.53;;
16270;SDS011;8243;49.048;8.396;2023-06-01T08:09:31;3.90;;;2.60;;
16270;SDS011;8243;49.048;8.396;2023-06-01T08:11:57;5.03;;;2.70;;
16270;SDS011;8243;49.048;8.396;2023-06-01T08:14:24;4.37;;;2.50;;
16270;SDS011;8243;49.048;8.396;2023-06-01T08:16:53;6.83;;;2.67;;
16270;SDS011;8243;49.048;8.396;2023-06-01T08:19:20;2.80;;;2.40;;
16270;SDS011;8243;49.048;8.396;2023-06-01T08:21:46;3.47;;;2.50;;
16270;SDS011;8243;49.048;8.396;2023-06-01T08:24:12;3.10;;;2.30;;
16270;SDS011;8243;49.048;8.396;2023-06-01T08:26:39;3.60;;;2.50;;
16270;SDS011;8243;49.048;8.396;2023-06-01T08:29:06;4.60;;;2.87;;
16270;SDS011;8243;49.048;8.396;2023-06-01T08:31:32;5.67;;;2.60;;
16270;SDS011;8243;49.048;8.396;2023-06-01T08:33:57;5.47;;;2.40;;
16270;SDS011;8243;49.048;8.396;2023-06-01T08:36:23;3.30;;;2.53;;
16270;SDS011;8243;49.048;8.396;2023-06-01T08:38:49;4.67;;;2.97;;
16270;SDS011;8243;49.048;8.396;2023-06-01T08:44:10;4.70;;;2.60;;
16270;SDS011;8243;49.048;8.396;2023-06-01T08:46:39;3.93;;;2.73;;
16270;SDS011;8243;49.048;8.396;2023-06-01T08:49:07;3.70;;;2.47;;
16270;SDS011;8243;49.048;8.396;2023-06-01T08:51:35;4.67;;;2.67;;
16270;SDS011;8243;49.048;8.396;2023-06-01T08:54:05;4.27;;;2.80;;
16270;SDS011;8243;49.048;8.396;2023-06-01T08:56:33;5.27;;;2.30;;
16270;SDS011;8243;49.048;8.396;2023-06-01T08:59:00;3.20;;;2.57;;
16270;SDS011;8243;49.048;8.396;2023-06-01T09:01:30;6.27;;;2.80;;
16270;SDS011;8243;49.048;8.396;2023-06-01T09:03:56;6.97;;;2.47;;
16270;SDS011;8243;49.048;8.396;2023-06-01T09:06:28;4.83;;;2.73;;
16270;SDS011;8243;49.048;8.396;2023-06-01T09:08:59;2.97;;;2.43;;
16270;SDS011;8243;49.048;8.396;2023-06-01T09:11:41;4.93;;;2.90;;
16270;SDS011;8243;49.048;8.396;2023-06-01T09:14:28;4.33;;;2.80;;
16270;SDS011;8243;49.048;8.396;2023-06-01T09:17:00;4.67;;;2.80;;
16270;SDS011;8243;49.048;8.396;2023-06-01T09:19:40;6.60;;;2.80;;
16270;SDS011;8243;49.048;8.396;2023-06-01T09:22:12;4.33;;;2.60;;
16270;SDS011;8243;49.048;8.396;2023-06-01T09:28:10;5.53;;;2.60;;
16270;SDS011;8243;49.048;8.396;2023-06-01T09:30:44;5.13;;;2.70;;
16270;SDS011;8243;49.048;8.396;2023-06-01T09:33:29;5.90;;;2.80;;
16270;SDS011;8243;49.048;8.396;2023-06-01T09:35:55;5.00;;;3.00;;
16270;SDS011;8243;49.048;8.396;2023-06-01T09:38:22;8.57;;;3.20;;
16270;SDS011;8243;49.048;8.396;2023-06-01T09:40:59;4.67;;;3.03;;
16270;SDS011;8243;49.048;8.396;2023-06-01T09:43:27;5.60;;;2.90;;
16270;SDS011;8243;49.048;8.396;2023-06-01T09:48:35;4.50;;;2.60;;
16270;SDS011;8243;49.048;8.396;2023-06-01T09:51:02;8.07;;;3.03;;
16270;SDS011;8243;49.048;8.396;2023-06-01T09:53:27;4.20;;;3.30;;
16270;SDS011;8243;49.048;8.396;2023-06-01T09:56:05;4.73;;;2.80;;
16270;SDS011;8243;49.048;8.396;2023-06-01T09:58:30;4.97;;;3.30;;
16270;SDS011;8243;49.048;8.396;2023-06-01T10:00:57;3.80;;;2.80;;
16270;SDS011;8243;49.048;8.396;2023-06-01T10:03:25;6.03;;;3.27;;
16270;SDS011;8243;49.048;8.396;2023-06-01T10:05:53;4.63;;;3.27;;
16270;SDS011;8243;49.048;8.396;2023-06-01T10:08:31;3.77;;;2.87;;
16270;SDS011;8243;49.048;8.396;2023-06-01T10:11:04;5.43;;;2.97;;
16270;SDS011;8243;49.048;8.396;2023-06-01T10:13:40;7.17;;;3.00;;
16270;SDS011;8243;49.048;8.396;2023-06-01T10:16:21;5.07;;;3.00;;
16270;SDS011;8243;49.048;8.396;2023-06-01T10:18:51;5.00;;;3.10;;
16270;SDS011;8243;49.048;8.396;2023-06-01T10:24:26;4.33;;;3.20;;
16270;SDS011;8243;49.048;8.396;2023-06-01T10:30:24;7.93;;;3.20;;
16270;SDS011;8243;49.048;8.396;2023-06-01T10:37:09;5.90;;;3.07;;
16270;SDS011;8243;49.048;8.396;2023-06-01T10:39:28;4.90;;;3.00;;
16270;SDS011;8243;49.048;8.396;2023-06-01T10:41:56;5.40;;;3.13;;
16270;SDS011;8243;49.048;8.396;2023-06-01T10:50:10;5.27;;;3.20;;
16270;SDS011;8243;49.048;8.396;2023-06-01T10:52:36;6.93;;;2.90;;
16270;SDS011;8243;49.048;8.396;2023-06-01T10:57:32;8.93;;;3.27;;
16270;SDS011;8243;49.048;8.396;2023-06-01T11:00:08;4.20;;;2.97;;
16270;SDS011;8243;49.048;8.396;2023-06-01T11:13:19;6.93;;;3.20;;
16270;SDS011;8243;49.048;8.396;2023-06-01T11:21:40;6.37;;;2.77;;
16270;SDS011;8243;49.048;8.396;2023-06-01T11:24:15;4.37;;;2.83;;
16270;SDS011;8243;49.048;8.396;2023-06-01T11:26:45;3.47;;;2.87;;
16270;SDS011;8243;49.048;8.396;2023-06-01T11:29:24;5.10;;;2.70;;
16270;SDS011;8243;49.048;8.396;2023-06-01T11:31:56;5.70;;;2.60;;
16270;SDS011;8243;49.048;8.396;2023-06-01T11:34:35;2.93;;;2.43;;
16270;SDS011;8243;49.048;8.396;2023-06-01T11:37:12;5.63;;;2.77;;
16270;SDS011;8243;49.048;8.396;2023-06-01T11:39:46;8.63;;;3.00;;
16270;SDS011;8243;49.048;8.396;2023-06-01T11:42:19;4.40;;;2.70;;
16270;SDS011;8243;49.048;8.396;2023-06-01T11:44:58;5.17;;;3.00;;
16270;SDS011;8243;49.048;8.396;2023-06-01T11:47:28;3.67;;;2.70;;
16270;SDS011;8243;49.048;8.396;2023-06-01T11:49:55;5.67;;;2.90;;
16270;SDS011;8243;49.048;8.396;2023-06-01T11:52:29;4.40;;;2.50;;
16270;SDS011;8243;49.048;8.396;2023-06-01T11:55:18;3.63;;;2.57;;
16270;SDS011;8243;49.048;8.396;2023-06-01T11:57:48;7.47;;;3.07;;
16270;SDS011;8243;49.048;8.396;2023-06-01T12:00:15;6.73;;;3.17;;
16270;SDS011;8243;49.048;8.396;2023-06-01T12:03:06;5.93;;;2.83;;
16270;SDS011;8243;49.048;8.396;2023-06-01T12:05:41;4.77;;;2.90;;
16270;SDS011;8243;49.048;8.396;2023-06-01T12:08:24;6.53;;;2.40;;
16270;SDS011;8243;49.048;8.396;2023-06-01T12:10:51;5.20;;;3.23;;
16270;SDS011;8243;49.048;8.396;2023-06-01T12:13:23;5.57;;;2.50;;
16270;SDS011;8243;49.048;8.396;2023-06-01T12:15:51;4.33;;;2.80;;
16270;SDS011;8243;49.048;8.396;2023-06-01T12:18:28;4.87;;;2.67;;
16270;SDS011;8243;49.048;8.396;2023-06-01T12:20:55;3.43;;;2.50;;
16270;SDS011;8243;49.048;8.396;2023-06-01T12:23:21;4.43;;;2.47;;
16270;SDS011;8243;49.048;8.396;2023-06-01T12:25:53;4.57;;;2.63;;
16270;SDS011;8243;49.048;8.396;2023-06-01T12:28:24;4.37;;;2.33;;
16270;SDS011;8243;49.048;8.396;2023-06-01T12:31:09;3.87;;;2.70;;
16270;SDS011;8243;49.048;8.396;2023-06-01T12:33:38;7.43;;;2.77;;
16270;SDS011;8243;49.048;8.396;2023-06-01T12:36:05;5.50;;;2.53;;
16270;SDS011;8243;49.048;8.396;2023-06-01T12:38:34;5.93;;;2.70;;
16270;SDS011;8243;49.048;8.396;2023-06-01T12:41:11;3.80;;;2.60;;
16270;SDS011;8243;49.048;8.396;2023-06-01T12:43:38;4.43;;;2.53;;
16270;SDS011;8243;49.048;8.396;2023-06-01T12:46:05;5.20;;;2.63;;
16270;SDS011;8243;49.048;8.396;2023-06-01T12:48:32;4.57;;;2.47;;
16270;SDS011;8243;49.048;8.396;2023-06-01T12:50:59;6.33;;;2.60;;
16270;SDS011;8243;49.048;8.396;2023-06-01T12:53:25;4.17;;;2.30;;
16270;SDS011;8243;49.048;8.396;2023-06-01T12:55:52;4.67;;;2.60;;
16270;SDS011;8243;49.048;8.396;2023-06-01T12:58:17;2.97;;;2.30;;
16270;SDS011;8243;49.048;8.396;2023-06-01T13:00:43;5.57;;;2.10;;
16270;SDS011;8243;49.048;8.396;2023-06-01T13:03:09;4.63;;;2.70;;
16270;SDS011;8243;49.048;8.396;2023-06-01T13:05:34;5.60;;;2.50;;
16270;SDS011;8243;49.048;8.396;2023-06-01T13:08:00;3.57;;;2.67;;
16270;SDS011;8243;49.048;8.396;2023-06-01T13:10:27;2.57;;;2.30;;
16270;SDS011;8243;49.048;8.396;2023-06-01T13:12:53;4.33;;;2.60;;
16270;SDS011;8243;49.048;8.396;2023-06-01T13:15:23;2.40;;;2.20;;
16270;SDS011;8243;49.048;8.396;2023-06-01T13:17:48;6.03;;;2.70;;
16270;SDS011;8243;49.048;8.396;2023-06-01T13:20:14;3.53;;;2.40;;
16270;SDS011;8243;49.048;8.396;2023-06-01T13:22:42;3.57;;;2.50;;
16270;SDS011;8243;49.048;8.396;2023-06-01T13:25:08;2.47;;;2.20;;
16270;SDS011;8243;49.048;8.396;2023-06-01T13:27:37;4.03;;;2.70;;
16270;SDS011;8243;49.048;8.396;2023-06-01T13:30:03;5.27;;;2.33;;
16270;SDS011;8243;49.048;8.396;2023-06-01T13:32:29;4.87;;;2.70;;
16270;SDS011;8243;49.048;8.396;2023-06-01T13:34:55;4.03;;;2.50;;
16270;SDS011;8243;49.048;8.396;2023-06-01T13:37:22;5.90;;;2.83;;
16270;SDS011;8243;49.048;8.396;2023-06-01T13:39:48;4.70;;;2.43;;
16270;SDS011;8243;49.048;8.396;2023-06-01T13:42:18;5.30;;;2.50;;
16270;SDS011;8243;49.048;8.396;2023-06-01T13:44:44;6.10;;;2.50;;
16270;SDS011;8243;49.048;8.396;2023-06-01T13:47:12;4.50;;;2.50;;
16270;SDS011;8243;49.048;8.396;2023-06-01T13:49:41;9.83;;;2.17;;
16270;SDS011;8243;49.048;8.396;2023-06-01T13:52:09;5.13;;;2.53;;
16270;SDS011;8243;49.048;8.396;2023-06-01T13:54:34;4.80;;;2.63;;
16270;SDS011;8243;49.048;8.396;2023-06-01T13:57:01;12.33;;;2.60;;
16270;SDS011;8243;49.048;8.396;2023-06-01T13:59:30;5.00;;;2.70;;
16270;SDS011;8243;49.048;8.396;2023-06-01T14:01:58;3.73;;;2.50;;
16270;SDS011;8243;49.048;8.396;2023-06-01T14:04:24;4.43;;;2.30;;
16270;SDS011;8243;49.048;8.396;2023-06-01T14:06:50;3.97;;;2.47;;
16270;SDS011;8243;49.048;8.396;2023-06-01T14:09:17;2.50;;;2.30;;
16270;SDS011;8243;49.048;8.396;2023-06-01T14:11:43;4.87;;;2.47;;
16270;SDS011;8243;49.048;8.396;2023-06-01T14:14:08;6.57;;;2.57;;
16270;SDS011;8243;49.048;8.396;2023-06-01T14:16:37;3.97;;;2.80;;
16270;SDS011;8243;49.048;8.396;2023-06-01T14:19:02;6.30;;;2.77;;
16270;SDS011;8243;49.048;8.396;2023-06-01T14:21:29;4.20;;;2.50;;
16270;SDS011;8243;49.048;8.396;2023-06-01T14:23:56;6.70;;;2.23;;
16270;SDS011;8243;49.048;8.396;2023-06-01T14:26:28;6.17;;;2.63;;
16270;SDS011;8243;49.048;8.396;2023-06-01T14:28:54;6.17;;;2.80;;
16270;SDS011;8243;49.048;8.396;2023-06-01T14:31:19;5.23;;;2.47;;
16270;SDS011;8243;49.048;8.396;2023-06-01T14:33:46;3.10;;;2.47;;
16270;SDS011;8243;49.048;8.396;2023-06-01T14:36:12;3.20;;;2.67;;
16270;SDS011;8243;49.048;8.396;2023-06-01T14:38:38;5.00;;;2.53;;
16270;SDS011;8243;49.048;8.396;2023-06-01T14:41:04;4.90;;;2.60;;
16270;SDS011;8243;49.048;8.396;2023-06-01T14:43:30;5.20;;;2.83;;
16270;SDS011;8243;49.048;8.396;2023-06-01T14:45:56;4.73;;;2.67;;
16270;SDS011;8243;49.048;8.396;2023-06-01T14:48:22;3.27;;;2.20;;
16270;SDS011;8243;49.048;8.396;2023-06-01T14:50:48;6.03;;;2.60;;
16270;SDS011;8243;49.048;8.396;2023-06-01T14:53:14;3.27;;;2.37;;
16270;SDS011;8243;49.048;8.396;2023-06-01T14:55:40;2.73;;;2.20;;
16270;SDS011;8243;49.048;8.396;2023-06-01T14:58:10;5.90;;;2.40;;
16270;SDS011;8243;49.048;8.396;2023-06-01T15:00:36;5.57;;;2.63;;
16270;SDS011;8243;49.048;8.396;2023-06-01T15:03:03;4.13;;;2.30;;
16270;SDS011;8243;49.048;8.396;2023-06-01T15:05:30;3.60;;;2.50;;
16270;SDS011;8243;49.048;8.396;2023-06-01T15:07:56;2.30;;;2.10;;
16270;SDS011;8243;49.048;8.396;2023-06-01T15:10:21;4.33;;;2.40;;
16270;SDS011;8243;49.048;8.396;2023-06-01T15:12:47;3.67;;;2.40;;
16270;SDS011;8243;49.048;8.396;2023-06-01T15:15:13;7.10;;;2.70;;
16270;SDS011;8243;49.048;8.396;2023-06-01T15:17:39;2.30;;;2.10;;
16270;SDS011;8243;49.048;8.396;2023-06-01T15:20:05;3.53;;;2.17;;
16270;SDS011;8243;49.048;8.396;2023-06-01T15:22:32;6.20;;;2.40;;
16270;SDS011;8243;49.048;8.396;2023-06-01T15:24:59;4.97;;;2.53;;
16270;SDS011;8243;49.048;8.396;2023-06-01T15:27:25;2.53;;;2.10;;
16270;SDS011;8243;49.048;8.396;2023-06-01T15:29:54;2.93;;;2.40;;
16270;SDS011;8243;49.048;8.396;2023-06-01T15:32:20;4.83;;;2.50;;
16270;SDS011;8243;49.048;8.396;2023-06-01T15:34:46;5.07;;;2.47;;
16270;SDS011;8243;49.048;8.396;2023-06-01T15:37:12;5.57;;;2.37;;
16270;SDS011;8243;49.048;8.396;2023-06-01T15:39:41;5.37;;;2.40;;
16270;SDS011;8243;49.048;8.396;2023-06-01T15:42:07;4.67;;;2.20;;
16270;SDS011;8243;49.048;8.396;2023-06-01T15:44:40;4.33;;;2.30;;
16270;SDS011;8243;49.048;8.396;2023-06-01T15:47:09;1.73;;;1.63;;
16270;SDS011;8243;49.048;8.396;2023-06-01T15:49:35;5.07;;;2.33;;
16270;SDS011;8243;49.048;8.396;2023-06-01T15:52:03;3.93;;;2.37;;
16270;SDS011;8243;49.048;8.396;2023-06-01T15:54:32;4.83;;;2.50;;
16270;SDS011;8243;49.048;8.396;2023-06-01T15:56:59;2.80;;;2.50;;
16270;SDS011;8243;49.048;8.396;2023-06-01T15:59:26;5.03;;;2.40;;
16270;SDS011;8243;49.048;8.396;2023-06-01T16:01:55;7.03;;;2.30;;
16270;SDS011;8243;49.048;8.396;2023-06-01T16:04:21;6.10;;;2.67;;
16270;SDS011;8243;49.048;8.396;2023-06-01T16:06:50;5.23;;;2.20;;
16270;SDS011;8243;49.048;8.396;2023-06-01T16:09:16;6.23;;;2.30;;
16270;SDS011;8243;49.048;8.396;2023-06-01T16:11:42;3.10;;;2.37;;
16270;SDS011;8243;49.048;8.396;2023-06-01T16:14:09;3.97;;;2.20;;
16270;SDS011;8243;49.048;8.396;2023-06-01T16:16:44;4.80;;;2.40;;
16270;SDS011;8243;49.048;8.396;2023-06-01T16:19:09;5.70;;;2.23;;
16270;SDS011;8243;49.048;8.396;2023-06-01T16:21:36;5.17;;;2.40;;
16270;SDS011;8243;49.048;8.396;2023-06-01T16:24:02;6.43;;;2.33;;
16270;SDS011;8243;49.048;8.396;2023-06-01T16:26:29;4.90;;;2.33;;